createdAt,value
2023-03-08T00:01:59.479Z,68.07
2023-03-08T00:04:28.246Z,68.08
2023-03-08T00:06:57.056Z,68.09
2023-03-08T00:09:25.648Z,67.96
2023-03-08T00:11:53.958Z,68.17
2023-03-08T00:14:22.689Z,68.30
2023-03-08T00:16:50.889Z,68.35
2023-03-08T00:19:19.372Z,68.53
2023-03-08T00:21:47.853Z,68.43
2023-03-08T00:24:18.182Z,68.51
2023-03-08T00:26:47.691Z,68.64
2023-03-08T00:29:16.105Z,68.52
2023-03-08T00:31:44.519Z,68.82
2023-03-08T00:34:13.671Z,68.94
2023-03-08T00:36:45.419Z,69.00
2023-03-08T00:39:16.604Z,69.13
2023-03-08T00:41:44.948Z,69.37
2023-03-08T00:44:13.530Z,69.36
2023-03-08T00:46:41.927Z,69.47
2023-03-08T00:49:11.310Z,69.64
2023-03-08T00:51:39.968Z,69.55
2023-03-08T00:54:09.212Z,69.71
2023-03-08T00:56:37.691Z,69.54
2023-03-08T00:59:06.105Z,69.55
2023-03-08T01:01:34.767Z,69.52
2023-03-08T01:04:04.527Z,69.33
2023-03-08T01:06:33.679Z,69.38
2023-03-08T01:09:02.568Z,69.69
2023-03-08T01:11:33.433Z,69.56
2023-03-08T01:14:02.195Z,69.65
2023-03-08T01:16:32.729Z,69.55
2023-03-08T01:19:01.532Z,69.67
2023-03-08T01:21:30.497Z,69.68
2023-03-08T01:23:58.918Z,69.61
2023-03-08T01:26:31.897Z,69.58
2023-03-08T01:29:00.568Z,69.46
2023-03-08T01:31:32.335Z,69.41
2023-03-08T01:34:03.164Z,69.47
2023-03-08T01:36:31.677Z,69.37
2023-03-08T01:39:01.476Z,69.54
2023-03-08T01:41:31.012Z,69.45
2023-03-08T01:44:03.959Z,69.56
2023-03-08T01:46:36.337Z,69.41
2023-03-08T01:49:12.086Z,69.47
2023-03-08T01:51:52.347Z,69.43
2023-03-08T01:54:25.336Z,69.38
2023-03-08T01:56:55.256Z,69.47
2023-03-08T01:59:23.639Z,69.22
2023-03-08T02:01:52.196Z,69.28
2023-03-08T02:04:20.827Z,69.11
2023-03-08T02:06:52.890Z,68.92
2023-03-08T02:09:24.240Z,68.82
2023-03-08T02:11:55.481Z,68.66
2023-03-08T02:14:29.509Z,68.49
2023-03-08T02:16:58.074Z,68.23
2023-03-08T02:19:41.712Z,68.08
2023-03-08T02:22:12.720Z,68.06
2023-03-08T02:24:41.037Z,68.04
2023-03-08T02:27:14.130Z,68.02
2023-03-08T02:29:42.723Z,67.88
2023-03-08T02:32:12.181Z,67.72
2023-03-08T02:34:40.926Z,67.64
2023-03-08T02:37:09.849Z,67.43
2023-03-08T02:39:38.212Z,67.32
2023-03-08T02:42:06.986Z,67.13
2023-03-08T02:44:36.723Z,66.95
2023-03-08T02:47:05.509Z,66.93
2023-03-08T02:49:34.098Z,66.85
2023-03-08T02:52:04.852Z,66.80
2023-03-08T02:54:34.412Z,66.70
2023-03-08T02:57:02.687Z,66.62
2023-03-08T02:59:31.591Z,66.62
2023-03-08T03:02:00.993Z,66.36
2023-03-08T03:04:33.400Z,66.32
2023-03-08T03:07:01.849Z,66.28
2023-03-08T03:09:34.559Z,66.14
2023-03-08T03:12:04.166Z,66.00
2023-03-08T03:14:37.638Z,65.89
2023-03-08T03:17:06.051Z,65.70
2023-03-08T03:19:34.910Z,65.28
2023-03-08T03:22:07.833Z,65.28
2023-03-08T03:24:37.732Z,64.98
2023-03-08T03:27:07.424Z,64.77
2023-03-08T03:29:38.706Z,64.73
2023-03-08T03:32:12.340Z,64.51
2023-03-08T03:34:44.779Z,64.26
2023-03-08T03:37:13.642Z,64.13
2023-03-08T03:39:42.739Z,64.00
2023-03-08T03:42:12.875Z,63.73
2023-03-08T03:44:46.359Z,63.54
2023-03-08T03:47:18.334Z,63.39
2023-03-08T03:49:47.530Z,63.38
2023-03-08T03:52:17.562Z,63.30
2023-03-08T03:54:53.140Z,63.29
2023-03-08T03:57:21.916Z,63.13
2023-03-08T03:59:50.481Z,63.09
2023-03-08T04:02:19.171Z,63.12
2023-03-08T04:04:55.239Z,62.96
2023-03-08T04:07:26.078Z,62.97
2023-03-08T04:10:00.120Z,63.05
2023-03-08T04:12:29.287Z,62.99
2023-03-08T04:14:57.881Z,62.91
2023-03-08T04:17:29.945Z,62.86
2023-03-08T04:19:59.860Z,62.82
2023-03-08T04:22:34.993Z,62.77
2023-03-08T04:25:09.478Z,62.71
2023-03-08T04:27:44.659Z,62.69
2023-03-08T04:30:15.003Z,62.66
2023-03-08T04:32:44.236Z,62.67
2023-03-08T04:35:13.282Z,62.74
2023-03-08T04:37:44.227Z,62.60
2023-03-08T04:40:13.535Z,62.48
2023-03-08T04:43:02.798Z,62.52
2023-03-08T04:45:35.789Z,62.46
2023-03-08T04:48:07.237Z,62.43
2023-03-08T04:50:39.729Z,62.31
2023-03-08T04:53:13.658Z,62.22
2023-03-08T04:55:43.067Z,62.39
2023-03-08T04:58:11.720Z,62.48
2023-03-08T05:00:40.350Z,62.62
2023-03-08T05:03:10.531Z,62.68
2023-03-08T05:05:39.426Z,62.62
2023-03-08T05:08:08.417Z,62.73
2023-03-08T05:10:38.781Z,62.66
2023-03-08T05:13:09.818Z,62.74
2023-03-08T05:15:42.095Z,62.75
2023-03-08T05:19:08.097Z,62.90
2023-03-08T05:22:58.691Z,62.66
2023-03-08T05:26:43.068Z,62.57
2023-03-08T05:30:27.449Z,62.39
2023-03-08T05:34:14.154Z,62.26
2023-03-08T05:37:58.108Z,62.14
2023-03-08T05:41:43.391Z,61.97
2023-03-08T05:45:28.372Z,61.76
2023-03-08T05:49:12.733Z,61.54
2023-03-08T05:52:56.305Z,61.40
2023-03-08T05:56:43.820Z,61.20
2023-03-08T06:00:27.459Z,60.96
2023-03-08T06:04:12.331Z,60.75
2023-03-08T06:07:58.143Z,60.48
2023-03-08T06:11:43.617Z,60.29
2023-03-08T06:15:28.001Z,60.14
2023-03-08T06:18:18.281Z,60.08
2023-03-08T06:21:23.235Z,60.03
2023-03-08T06:24:04.672Z,59.91
2023-03-08T06:26:40.885Z,59.58
2023-03-08T06:29:15.228Z,59.46
2023-03-08T06:32:10.663Z,59.35
2023-03-08T06:34:48.108Z,59.08
2023-03-08T06:37:41.026Z,58.95
2023-03-08T06:40:21.016Z,58.67
2023-03-08T06:43:12.331Z,58.46
2023-03-08T06:45:56.584Z,58.10
2023-03-08T06:48:53.126Z,57.82
2023-03-08T06:51:51.881Z,57.57
2023-03-08T06:54:39.779Z,57.18
2023-03-08T06:57:11.451Z,56.82
2023-03-08T07:00:00.509Z,56.67
2023-03-08T07:02:44.139Z,56.43
2023-03-08T07:05:31.244Z,56.27
2023-03-08T07:08:29.314Z,56.04
2023-03-08T07:11:31.393Z,55.57
2023-03-08T07:14:08.372Z,55.11
2023-03-08T07:16:51.230Z,54.54
2023-03-08T07:19:37.242Z,54.13
2023-03-08T07:22:29.426Z,53.75
2023-03-08T07:25:24.685Z,53.49
2023-03-08T07:28:24.656Z,53.53
2023-03-08T07:31:19.359Z,53.47
2023-03-08T07:34:11.813Z,53.27
2023-03-08T07:36:56.162Z,52.88
2023-03-08T07:39:52.502Z,52.67
2023-03-08T07:42:44.431Z,52.42
2023-03-08T08:02:29.564Z,51.11
2023-03-08T08:05:33.533Z,50.64
2023-03-08T08:08:19.301Z,50.84
2023-03-08T08:26:36.105Z,50.20
2023-03-08T08:29:22.496Z,50.15
2023-03-08T08:32:17.494Z,49.86
2023-03-08T08:35:09.190Z,49.32
2023-03-08T08:37:57.484Z,49.21
2023-03-08T08:40:47.870Z,49.05
2023-03-08T08:43:37.034Z,48.84
2023-03-08T08:46:38.583Z,48.60
2023-03-08T08:49:31.446Z,48.36
2023-03-08T08:52:19.294Z,47.73
2023-03-08T08:55:13.973Z,47.77
2023-03-08T08:58:02.339Z,47.49
2023-03-08T09:00:54.272Z,47.34
2023-03-08T09:04:13.641Z,46.49
2023-03-08T09:07:10.163Z,46.62
2023-03-08T09:10:12.590Z,46.37
2023-03-08T09:13:03.814Z,46.64
2023-03-08T09:15:51.659Z,46.60
2023-03-08T09:18:36.170Z,46.04
2023-03-08T09:21:08.708Z,45.92
2023-03-08T09:23:59.453Z,45.80
2023-03-08T09:27:02.046Z,46.00
2023-03-08T09:33:33.319Z,45.74
2023-03-08T09:36:26.588Z,45.46
2023-03-08T09:39:15.430Z,45.37
2023-03-08T09:42:09.019Z,45.61
2023-03-08T09:45:08.621Z,45.86
2023-03-08T09:48:26.774Z,46.31
2023-03-08T09:51:16.889Z,46.44
2023-03-08T09:57:28.938Z,46.31
2023-03-08T10:00:32.802Z,46.45
2023-03-08T10:03:44.626Z,46.67
2023-03-08T10:07:22.240Z,46.57
2023-03-08T10:10:08.881Z,46.74
2023-03-08T10:13:20.999Z,46.80
2023-03-08T10:16:34.514Z,46.85
2023-03-08T10:19:29.638Z,47.11
2023-03-08T10:22:35.041Z,47.22
2023-03-08T10:25:37.098Z,47.67
2023-03-08T10:28:36.636Z,48.29
2023-03-08T10:31:35.431Z,48.89
2023-03-08T10:34:33.892Z,49.34
2023-03-08T10:37:21.429Z,49.87
2023-03-08T10:40:09.882Z,50.32
2023-03-08T10:43:08.476Z,50.71
2023-03-08T10:46:14.732Z,50.56
2023-03-08T10:49:33.092Z,50.65
2023-03-08T10:52:02.708Z,50.42
2023-03-08T10:54:31.289Z,50.36
2023-03-08T10:57:02.022Z,50.44
2023-03-08T10:59:33.576Z,50.52
2023-03-08T11:02:23.170Z,50.65
2023-03-08T11:04:56.080Z,50.36
2023-03-08T11:07:27.396Z,50.28
2023-03-08T11:10:26.456Z,50.29
2023-03-08T11:13:06.144Z,50.33
2023-03-08T11:15:39.033Z,50.30
2023-03-08T11:18:32.623Z,50.12
2023-03-08T11:21:06.825Z,49.98
2023-03-08T11:24:10.827Z,49.85
2023-03-08T11:26:51.938Z,50.05
2023-03-08T11:29:39.862Z,50.11
2023-03-08T11:32:17.469Z,50.19
2023-03-08T11:34:57.813Z,50.50
2023-03-08T11:38:16.884Z,50.59
2023-03-08T11:41:33.518Z,50.78
2023-03-08T11:44:44.803Z,50.76
2023-03-08T11:47:53.617Z,50.60
2023-03-08T11:50:36.341Z,50.51
2023-03-08T11:53:09.941Z,50.36
2023-03-08T11:55:40.689Z,50.16
2023-03-08T11:58:27.379Z,50.04
2023-03-08T12:01:00.894Z,49.90
2023-03-08T12:03:41.617Z,49.73
2023-03-08T12:06:28.010Z,49.41
2023-03-08T12:09:05.846Z,49.42
2023-03-08T12:11:47.682Z,49.12
2023-03-08T12:14:23.442Z,48.86
2023-03-08T12:17:01.944Z,48.90
2023-03-08T12:19:43.974Z,48.80
2023-03-08T12:22:23.597Z,48.29
2023-03-08T12:25:25.546Z,47.88
2023-03-08T12:27:57.060Z,47.68
2023-03-08T12:30:37.563Z,47.64
2023-03-08T12:33:06.837Z,47.46
2023-03-08T12:35:36.420Z,47.18
2023-03-08T12:38:10.301Z,47.28
2023-03-08T12:40:44.560Z,47.12
2023-03-08T12:43:20.572Z,47.17
2023-03-08T12:46:05.842Z,47.18
2023-03-08T12:48:44.717Z,47.32
2023-03-08T12:51:13.064Z,47.12
2023-03-08T12:53:51.774Z,47.08
2023-03-08T12:56:27.982Z,47.28
2023-03-08T12:58:59.495Z,47.52
2023-03-08T13:01:30.964Z,47.61
2023-03-08T13:04:00.528Z,47.57
2023-03-08T13:06:37.404Z,47.63
2023-03-08T13:09:13.711Z,47.34
2023-03-08T13:11:46.198Z,47.16
2023-03-08T13:14:28.915Z,47.24
2023-03-08T13:16:57.594Z,47.30
2023-03-08T13:19:27.802Z,47.49
2023-03-08T13:22:03.159Z,47.68
2023-03-08T13:25:01.660Z,47.63
2023-03-08T13:27:49.820Z,47.50
2023-03-08T13:30:24.349Z,47.55
2023-03-08T13:32:54.132Z,47.60
2023-03-08T13:35:22.953Z,47.56
2023-03-08T13:37:57.159Z,47.54
2023-03-08T13:40:26.286Z,47.52
2023-03-08T13:43:04.044Z,47.69
2023-03-08T13:45:33.445Z,47.68
2023-03-08T13:48:04.212Z,47.70
2023-03-08T13:50:38.703Z,47.65
2023-03-08T13:53:36.939Z,47.59
2023-03-08T13:56:06.888Z,47.64
2023-03-08T13:58:39.832Z,47.46
2023-03-08T14:01:17.626Z,47.13
2023-03-08T14:03:46.868Z,46.99
2023-03-08T14:06:30.090Z,46.77
2023-03-08T14:09:01.688Z,46.48
2023-03-08T14:11:32.426Z,46.07
2023-03-08T14:14:07.649Z,45.97
2023-03-08T14:16:37.999Z,45.56
2023-03-08T14:19:19.833Z,45.13
2023-03-08T14:21:59.986Z,44.90
2023-03-08T14:24:30.367Z,44.68
2023-03-08T14:27:06.917Z,44.41
2023-03-08T14:29:36.513Z,44.44
2023-03-08T14:32:24.102Z,44.33
2023-03-08T14:34:52.876Z,44.23
2023-03-08T14:37:27.415Z,43.72
2023-03-08T14:40:11.798Z,43.97
2023-03-08T14:42:45.606Z,43.88
2023-03-08T14:45:37.611Z,44.08
2023-03-08T14:48:25.336Z,44.04
2023-03-08T14:51:06.198Z,44.26
2023-03-08T14:53:40.954Z,44.47
2023-03-08T14:56:15.950Z,44.68
2023-03-08T14:58:49.496Z,45.05
2023-03-08T15:01:25.978Z,45.41
2023-03-08T15:03:54.470Z,45.68
2023-03-08T15:06:27.924Z,45.75
2023-03-08T15:08:56.815Z,45.98
2023-03-08T15:11:25.298Z,46.12
2023-03-08T15:13:54.009Z,46.22
2023-03-08T15:16:22.640Z,46.37
2023-03-08T15:18:51.386Z,46.24
2023-03-08T15:21:25.205Z,46.11
2023-03-08T15:23:59.588Z,45.61
2023-03-08T15:26:31.863Z,45.46
2023-03-08T15:29:10.557Z,45.33
2023-03-08T15:31:52.021Z,45.17
2023-03-08T15:34:30.331Z,45.26
2023-03-08T15:37:01.543Z,45.39
2023-03-08T15:39:50.065Z,45.65
2023-03-08T15:43:05.883Z,45.92
2023-03-08T15:45:34.270Z,46.07
2023-03-08T15:48:07.420Z,46.44
2023-03-08T15:50:36.797Z,46.69
2023-03-08T15:53:05.450Z,46.92
2023-03-08T15:55:34.237Z,47.13
2023-03-08T15:58:07.842Z,47.22
2023-03-08T16:00:37.045Z,47.45
2023-03-08T16:03:05.524Z,47.68
2023-03-08T16:05:34.622Z,47.89
2023-03-08T16:08:03.420Z,48.14
2023-03-08T16:10:40.745Z,48.18
2023-03-08T16:13:12.161Z,48.28
2023-03-08T16:15:44.025Z,48.56
2023-03-08T16:18:14.563Z,48.81
2023-03-08T16:20:46.440Z,48.93
2023-03-08T16:23:15.519Z,49.23
2023-03-08T16:25:46.574Z,49.58
2023-03-08T16:28:16.797Z,49.76
2023-03-08T16:30:56.159Z,49.95
2023-03-08T16:33:28.363Z,49.85
2023-03-08T16:35:57.833Z,49.69
2023-03-08T16:38:26.390Z,49.74
2023-03-08T16:41:06.189Z,49.91
2023-03-08T16:43:49.787Z,49.87
2023-03-08T16:46:22.706Z,50.04
2023-03-08T16:48:54.629Z,50.00
2023-03-08T16:51:25.570Z,50.16
2023-03-08T16:53:54.629Z,50.14
2023-03-08T16:56:25.227Z,50.11
2023-03-08T16:58:55.169Z,50.18
2023-03-08T17:01:24.545Z,50.23
2023-03-08T17:03:53.338Z,50.20
2023-03-08T17:06:22.769Z,50.12
2023-03-08T17:08:52.258Z,50.14
2023-03-08T17:11:28.356Z,50.12
2023-03-08T17:14:09.050Z,50.27
2023-03-08T17:16:43.753Z,50.39
2023-03-08T17:19:13.594Z,50.52
2023-03-08T17:21:42.079Z,50.72
2023-03-08T17:24:12.954Z,50.87
2023-03-08T17:26:43.653Z,51.02
2023-03-08T17:29:12.036Z,51.21
2023-03-08T17:31:41.156Z,51.36
2023-03-08T17:34:10.028Z,51.61
2023-03-08T17:36:39.223Z,51.80
2023-03-08T17:39:07.510Z,52.12
2023-03-08T17:41:38.822Z,52.32
2023-03-08T17:44:07.309Z,52.49
2023-03-08T17:46:36.093Z,52.70
2023-03-08T17:49:04.718Z,52.83
2023-03-08T17:51:33.404Z,52.99
2023-03-08T17:54:03.439Z,53.35
2023-03-08T17:56:35.799Z,53.57
2023-03-08T17:59:04.598Z,53.83
2023-03-08T18:01:34.202Z,54.02
2023-03-08T18:04:02.814Z,54.17
2023-03-08T18:06:36.813Z,54.48
2023-03-08T18:09:10.409Z,54.82
2023-03-08T18:11:38.689Z,55.16
2023-03-08T18:14:13.693Z,55.41
2023-03-08T18:16:42.831Z,55.69
2023-03-08T18:19:15.911Z,55.91
2023-03-08T18:21:45.601Z,55.95
2023-03-08T18:24:14.264Z,55.91
2023-03-08T18:26:43.206Z,56.09
2023-03-08T18:29:12.817Z,56.21
2023-03-08T18:31:41.605Z,56.46
2023-03-08T18:34:10.183Z,56.67
2023-03-08T18:36:38.569Z,56.88
2023-03-08T18:39:08.244Z,57.19
2023-03-08T18:41:36.868Z,57.57
2023-03-08T18:44:11.819Z,57.83
2023-03-08T18:46:40.642Z,57.93
2023-03-08T18:49:12.041Z,57.98
2023-03-08T18:51:41.814Z,58.10
2023-03-08T18:54:20.941Z,58.19
2023-03-08T18:56:50.288Z,58.41
2023-03-08T18:59:18.666Z,58.57
2023-03-08T19:01:47.093Z,58.73
2023-03-08T19:04:16.048Z,58.65
2023-03-08T19:06:44.647Z,58.65
2023-03-08T19:09:14.760Z,58.78
2023-03-08T19:11:43.790Z,58.76
2023-03-08T19:14:12.453Z,58.76
2023-03-08T19:16:42.244Z,58.91
2023-03-08T19:19:13.304Z,58.97
2023-03-08T19:21:43.851Z,59.08
2023-03-08T19:24:13.810Z,59.10
2023-03-08T19:26:43.462Z,59.15
2023-03-08T19:29:17.577Z,59.21
2023-03-08T19:31:53.218Z,59.27
2023-03-08T19:34:44.956Z,59.33
2023-03-08T19:37:13.980Z,59.35
2023-03-08T19:39:44.590Z,59.31
2023-03-08T19:42:16.023Z,59.41
2023-03-08T19:44:48.635Z,59.50
2023-03-08T19:47:17.878Z,59.55
2023-03-08T19:49:47.029Z,59.70
2023-03-08T19:52:15.814Z,59.75
2023-03-08T19:54:47.198Z,59.79
2023-03-08T19:57:15.783Z,59.92
2023-03-08T19:59:45.464Z,60.04
2023-03-08T20:02:15.102Z,60.00
2023-03-08T20:04:45.709Z,60.01
2023-03-08T20:07:15.931Z,60.15
2023-03-08T20:09:44.615Z,60.16
2023-03-08T20:12:15.618Z,60.38
2023-03-08T20:14:45.679Z,60.55
2023-03-08T20:17:14.474Z,60.78
2023-03-08T20:19:43.575Z,60.90
2023-03-08T20:22:15.317Z,61.10
2023-03-08T20:24:52.748Z,61.15
2023-03-08T20:27:22.848Z,61.17
2023-03-08T20:30:07.033Z,61.33
2023-03-08T20:32:40.044Z,61.38
2023-03-08T20:35:25.632Z,61.41
2023-03-08T20:37:57.248Z,61.56
2023-03-08T20:40:54.660Z,61.72
2023-03-08T20:43:29.927Z,61.97
2023-03-08T20:46:16.088Z,62.05
2023-03-08T20:49:02.883Z,62.06
2023-03-08T20:51:52.947Z,62.23
2023-03-08T20:54:47.025Z,62.33
2023-03-08T20:57:27.635Z,62.33
2023-03-08T21:00:19.956Z,62.55
2023-03-08T21:02:52.091Z,62.63
2023-03-08T21:05:30.926Z,62.59
2023-03-08T21:08:07.473Z,62.81
2023-03-08T21:11:00.878Z,62.90
2023-03-08T21:13:51.371Z,63.11
2023-03-08T21:16:23.523Z,63.20
2023-03-08T21:18:58.773Z,63.32
2023-03-08T21:21:40.865Z,63.20
2023-03-08T21:24:18.600Z,63.30
2023-03-08T21:26:53.912Z,63.73
2023-03-08T21:29:36.940Z,63.62
2023-03-08T21:32:16.396Z,63.84
2023-03-08T21:35:07.101Z,64.16
2023-03-08T21:37:51.649Z,64.32
2023-03-08T21:40:52.900Z,64.34
2023-03-08T21:43:46.695Z,64.51
2023-03-08T21:46:31.631Z,64.72
2023-03-08T21:49:33.917Z,64.96
2023-03-08T21:52:37.433Z,65.03
2023-03-08T21:55:22.401Z,65.33
2023-03-08T21:57:54.751Z,65.23
2023-03-08T22:00:54.805Z,65.31
2023-03-08T22:03:39.701Z,65.37
2023-03-08T22:06:27.087Z,65.34
2023-03-08T22:09:30.080Z,65.62
2023-03-08T22:12:27.850Z,65.67
2023-03-08T22:15:17.441Z,65.82
2023-03-08T22:18:05.480Z,65.89
2023-03-08T22:20:38.272Z,66.27
2023-03-08T22:23:10.899Z,66.10
2023-03-08T22:25:55.246Z,66.27
2023-03-08T22:28:32.891Z,66.32
2023-03-08T22:31:36.845Z,66.41
2023-03-08T22:34:18.089Z,66.61
2023-03-08T22:36:57.802Z,66.77
2023-03-08T22:39:31.632Z,66.85
2023-03-08T22:42:18.768Z,66.94
2023-03-08T22:44:52.647Z,67.05
2023-03-08T22:47:27.252Z,67.45
2023-03-08T22:50:09.443Z,67.47
2023-03-08T22:52:40.150Z,67.52
2023-03-08T22:55:17.241Z,67.65
2023-03-08T22:58:05.987Z,67.89
2023-03-08T23:00:54.225Z,67.80
2023-03-08T23:03:42.288Z,67.91
2023-03-08T23:06:14.970Z,68.09
2023-03-08T23:08:55.470Z,68.36
2023-03-08T23:11:34.001Z,68.37
2023-03-08T23:14:18.084Z,68.62
2023-03-08T23:16:49.219Z,68.81
2023-03-08T23:19:25.195Z,68.85
2023-03-08T23:22:22.361Z,69.04
2023-03-08T23:25:05.391Z,69.09
2023-03-08T23:27:46.376Z,69.16
2023-03-08T23:30:28.148Z,69.18
2023-03-08T23:33:07.350Z,69.19
2023-03-08T23:35:51.169Z,69.09
2023-03-08T23:38:36.129Z,69.06
2023-03-08T23:41:30.192Z,68.96
2023-03-08T23:44:22.466Z,68.73
2023-03-08T23:47:16.305Z,68.70
2023-03-08T23:50:13.143Z,68.42
2023-03-08T23:52:56.210Z,68.26
2023-03-08T23:55:32.553Z,68.06
2023-03-08T23:58:05.412Z,68.04
